Archival Weather

Fukuoka

Fukuoka, Japan (RJFF)

Report from: Tuesday, August 16, 2022 7:20 PM JST
Current time: Sunday, November 27, 2022 5:22 PM JST

Current weather
Weather history
Weather forecast

Present weatherLight rain showers
Temperature27.0°C (80.6°F)
Heat index30.6°C (87.0°F)
Dew point25.0°C (77.0°F)
Winds 12 kts (6.2 m/s, 13.8 mph) South-Southeast (150°)
Visibility6.2 mi. (10 km)
Clouds Few clouds 100 ft. (30 m)
Few clouds with cumulonimbus 3,000 ft. (914 m)
Scattered clouds 3,500 ft. (1,067 m)
Ceiling: Broken clouds 4,000 ft. (1,219 m)
Altimeter29.74 in.Hg (1007 mB)
Precip. events C 7:01 PM
Relative humidity89 %
Density altitude2,017 ft. (615 m)
Remarks Special weather observation
Cumulonimbus clouds observed northwest moving northeast
Flight conditions Visual Meteorological Conditions
Raw dataSPJP31 KWBC 161035 SPECI RJFF 161020Z 15012KT 9999 -SHRA FEW001 FEW030CB SCT035 BKN040 27/25 Q1007 RMK 1ST001 1CB030 3CU035 5CU040 A2974 CB 20KM NW MOV NE
An error has occurred. This application may no longer respond until reloaded. Reload 🗙